79J

South Alabama Regional at Bill Benton Field Airport

Andalusia, Alabama, USA
METAR K79J 210856Z AUTO 00000KT 6SM BR CLR 26/24 A2990 RMK AO2 SLP119 T02610239 58015
Observed Flight Rules
Jul-21 @ 08:56 UTC (an hour ago) Visual Flight Rules
Visibility Clouds Conditions
6 miles
  • Clear skies
  • Mist
Temperatures Readings
Current 26°C / 79°F
Dewpoint 24°C / 75°F
Humidity 89%
Altimeter 29.9" Hg
Pressure 1011.9 hPa
Elevation 94
METAR K79J 210856Z AUTO 00000KT 6SM BR CLR 26/24 A2990 RMK AO2 SLP119 T02610239 58015
Observed Flight Rules
Jul-21 @ 08:56 UTC
(an hour ago)
VFR
Clouds
  • Clear skies
Conditions
  • Mist
Temperature Dewpoint
26°C / 79°F 24°C / 75°F
Humidity Altimeter Pressure
89% 29.9" Hg 1011.9 hPa